»·PEaware :: UAL1399 KFMN-KTEX

UAL1399 :: KFMN-KTEX

FLIGHT INFORMATION

Flight Status: Arrived
Operator:
United Airlines
More flights by this operator :: More flights under this callsign
Pilot: David C. (16084)
Aircraft: SAAB 340
(SF34)
More flights by this aircraft type
Origin: KFMN Four Corners Regl
United States
Destination: KTEX Telluride Regl
United States
More flights between these airports :: More routes between these airports
Route: PLATA1 CEZ V68 ETL
File this flight plan on PilotEdge
Remarks:
Altitude:
(Current/Filed)
14,000ft
Speed:
(Current/Filed)
285kts
Departed: 18-Jun-18 08:34 AM
Arrived: 18-Jun-18 09:04 AM
Distance/Time
Traveled:
74nm/0:30
Distance/Time
To Go:
Arrived

Flight Plot

Page will automatically refresh every two minutes.

Flight plan parsing failed; only flown route is shown


Map Options




Map Legend


Flown Route
Filed Route
Departure Airport
Arrival Airport
Navaid (VOR, NDB)
Fix

Horizontal Profiles

Position Reports

Time Latitude Longitude Heading Altitude Ground
Speed
18-Jun-18 08:13 36.739709 -108.228835 0 5509ft 0kts
18-Jun-18 08:14 36.739709 -108.228835 0 5509ft 0kts
18-Jun-18 08:15 36.739709 -108.228835 0 5509ft 0kts
18-Jun-18 08:16 36.739709 -108.228835 0 5509ft 0kts
18-Jun-18 08:17 36.739709 -108.228835 0 5509ft 0kts
18-Jun-18 08:18 36.739709 -108.228835 0 5509ft 0kts
18-Jun-18 08:19 36.739709 -108.228835 0 5509ft 0kts
18-Jun-18 08:20 36.739709 -108.228835 0 5509ft 0kts
18-Jun-18 08:21 36.739709 -108.228835 0 5509ft 0kts
18-Jun-18 08:22 36.739709 -108.228835 0 5509ft 0kts
18-Jun-18 08:23 36.739709 -108.228835 0 5509ft 0kts
18-Jun-18 08:24 36.739709 -108.228835 0 5509ft 0kts
18-Jun-18 08:25 36.739709 -108.228835 0 5509ft 0kts
18-Jun-18 08:26 36.739709 -108.228835 0 5509ft 0kts
18-Jun-18 08:27 36.739709 -108.228835 0 5509ft 0kts
18-Jun-18 08:28 36.739709 -108.228835 0 5509ft 0kts
18-Jun-18 08:29 36.739974 -108.228658 68 5509ft 8kts
18-Jun-18 08:30 36.740653 -108.225467 89 5509ft 14kts
18-Jun-18 08:31 36.740801 -108.219162 87 5509ft 15kts
18-Jun-18 08:32 36.740819 -108.218631 86 5509ft 0kts
18-Jun-18 08:33 36.740831 -108.218434 85 5509ft 5kts
18-Jun-18 08:34 36.741525 -108.220754 267 5509ft 76kts
18-Jun-18 08:35 36.749917 -108.265787 328 7085ft 168kts
18-Jun-18 08:36 36.802694 -108.260854 9 8838ft 208kts
18-Jun-18 08:37 36.861481 -108.248184 9 10311ft 217kts
18-Jun-18 08:38 36.921233 -108.233885 7 11748ft 220kts
18-Jun-18 08:39 36.974661 -108.261889 327 13048ft 211kts
18-Jun-18 08:40 37.025683 -108.297972 325 14009ft 229kts
18-Jun-18 08:41 37.083645 -108.339747 326 14009ft 262kts
18-Jun-18 08:42 37.148126 -108.386315 327 14005ft 274kts
18-Jun-18 08:43 37.210756 -108.431669 327 14007ft 278kts
18-Jun-18 08:44 37.277828 -108.480359 327 14007ft 279kts
18-Jun-18 08:45 37.345034 -108.529218 327 14007ft 280kts
18-Jun-18 08:46 37.411069 -108.580545 322 14009ft 279kts
18-Jun-18 08:47 37.474613 -108.636211 322 14007ft 279kts
18-Jun-18 08:48 37.542715 -108.661499 29 14016ft 286kts
18-Jun-18 08:49 37.615696 -108.621431 20 14010ft 287kts
18-Jun-18 08:50 37.690892 -108.587082 19 14010ft 288kts
18-Jun-18 08:51 37.766938 -108.552802 19 13674ft 286kts
18-Jun-18 08:52 37.834472 -108.522325 19 12872ft 232kts
18-Jun-18 08:53 37.896124 -108.494443 19 12866ft 247kts
18-Jun-18 08:54 37.962499 -108.463406 33 12842ft 260kts
18-Jun-18 08:55 37.997162 -108.384905 68 12913ft 258kts
18-Jun-18 08:56 38.024884 -108.303817 69 12948ft 250kts
18-Jun-18 08:57 38.027278 -108.237626 125 13008ft 182kts
18-Jun-18 08:58 38.009851 -108.176250 110 13001ft 186kts
18-Jun-18 08:59 37.996408 -108.112538 109 12822ft 189kts
18-Jun-18 09:00 37.984445 -108.055032 110 11761ft 156kts
18-Jun-18 09:01 37.973529 -108.002807 110 10736ft 151kts
18-Jun-18 09:02 37.963061 -107.951719 110 9818ft 147kts
18-Jun-18 09:03 37.953192 -107.906089 105 9083ft 66kts
18-Jun-18 09:04 37.953029 -107.901252 15 9083ft 1kts
18-Jun-18 09:05 37.954459 -107.902467 14 9083ft 0kts
18-Jun-18 09:06 37.954459 -107.902467 14 9083ft 0kts

Navigation Log

Ident Type
Flight plan parsing failed, navigation log unavailable